Time;durP1;ratioP1;P1;durP2;ratioP2;P2;SDS_P1;SDS_P2;PMS_P1;PMS_P2;Temp;Humidity;BMP_temperature;BMP_pressure;BME280_temperature;BME280_humidity;BME280_pressure;Samples;Min_cycle;Max_cycle;Signal;HPM_P1;HPM_P2
2022/10/31 00:01:11;;;;;;;2.75;1.08;;;12.80;99.90;;;;;;5024521;28;20120;-76
2022/10/31 00:03:37;;;;;;;5.43;1.45;;;12.80;99.90;;;;;;5042579;28;20079;-75
2022/10/31 00:06:02;;;;;;;3.72;1.45;;;12.80;99.90;;;;;;5057613;28;20037;-75
2022/10/31 00:08:28;;;;;;;3.72;1.75;;;12.70;99.90;;;;;;5042150;28;20022;-80
2022/10/31 00:10:54;;;;;;;4.07;1.92;;;12.60;99.90;;;;;;5024360;28;20481;-75
2022/10/31 00:13:19;;;;;;;3.25;1.40;;;12.50;99.90;;;;;;5037391;28;20036;-81
2022/10/31 00:15:45;;;;;;;2.88;1.73;;;12.50;99.90;;;;;;5058534;28;20028;-76
2022/10/31 00:18:11;;;;;;;4.22;2.13;;;12.50;99.90;;;;;;5044992;28;20091;-79
2022/10/31 00:20:38;;;;;;;3.25;1.98;;;12.40;99.90;;;;;;5041032;28;20478;-82
2022/10/31 00:23:05;;;;;;;5.38;1.63;;;12.30;99.90;;;;;;5046504;28;20021;-80
2022/10/31 00:25:35;;;;;;;2.90;1.60;;;12.20;99.90;;;;;;5037215;28;20427;-75
2022/10/31 00:28:01;;;;;;;3.65;1.65;;;12.20;99.90;;;;;;5025338;28;20032;-75
2022/10/31 00:30:27;;;;;;;3.53;1.85;;;12.20;99.90;;;;;;5043992;28;20048;-78
2022/10/31 00:32:52;;;;;;;3.45;1.42;;;12.30;99.90;;;;;;5044931;28;20453;-77
2022/10/31 00:35:18;;;;;;;3.63;1.60;;;12.30;99.90;;;;;;5038572;28;20033;-76
2022/10/31 00:37:44;;;;;;;4.75;1.42;;;12.30;99.90;;;;;;5026131;28;20095;-75
2022/10/31 00:40:10;;;;;;;3.33;1.50;;;12.20;99.90;;;;;;5041582;28;20106;-75
2022/10/31 00:42:36;;;;;;;2.85;1.38;;;12.30;99.90;;;;;;5044194;28;20466;-82
2022/10/31 00:45:02;;;;;;;4.93;1.20;;;12.20;99.90;;;;;;5038874;28;20078;-80
2022/10/31 00:47:28;;;;;;;3.95;1.58;;;12.00;99.90;;;;;;5042938;28;20029;-79
2022/10/31 00:49:54;;;;;;;3.75;1.50;;;12.00;99.90;;;;;;5045962;28;20427;-76
2022/10/31 00:52:19;;;;;;;2.40;1.20;;;12.00;99.90;;;;;;5059041;28;20486;-78
2022/10/31 00:54:45;;;;;;;3.28;1.48;;;11.90;99.90;;;;;;5040793;28;20112;-79
2022/10/31 00:57:11;;;;;;;3.63;1.73;;;11.90;99.90;;;;;;5058046;28;20029;-81
2022/10/31 00:59:37;;;;;;;4.47;1.13;;;12.00;99.90;;;;;;5040435;28;20041;-78
2022/10/31 01:02:02;;;;;;;3.25;1.77;;;11.90;99.90;;;;;;5044470;28;20041;-78
2022/10/31 01:04:28;;;;;;;3.80;1.38;;;11.80;99.90;;;;;;5027038;28;20021;-78
2022/10/31 01:06:55;;;;;;;2.63;1.45;;;11.80;99.90;;;;;;5046146;28;20096;-77
2022/10/31 01:09:22;;;;;;;2.30;1.40;;;11.70;99.90;;;;;;5044959;28;20024;-78
2022/10/31 01:11:48;;;;;;;6.40;1.30;;;11.80;99.90;;;;;;5029489;28;20116;-78
2022/10/31 01:14:14;;;;;;;4.45;1.67;;;11.90;99.90;;;;;;5044214;28;20109;-82
2022/10/31 01:16:40;;;;;;;5.32;1.63;;;11.80;99.90;;;;;;5048313;28;20402;-81
2022/10/31 01:19:05;;;;;;;3.60;1.55;;;11.70;99.90;;;;;;5040176;28;20105;-80
2022/10/31 01:21:31;;;;;;;3.97;1.77;;;11.70;99.90;;;;;;5045651;28;20108;-77
2022/10/31 01:23:58;;;;;;;3.92;1.75;;;11.60;99.90;;;;;;5046444;28;20082;-78
2022/10/31 01:26:26;;;;;;;3.95;1.58;;;11.60;99.90;;;;;;5046340;28;20052;-75
2022/10/31 01:28:55;;;;;;;4.07;1.57;;;11.60;99.90;;;;;;5044282;28;20025;-80
2022/10/31 01:31:24;;;;;;;3.63;1.80;;;11.40;99.90;;;;;;5047931;28;20291;-79
2022/10/31 01:33:50;;;;;;;4.03;1.65;;;11.40;99.90;;;;;;5043283;28;20036;-78
2022/10/31 01:36:21;;;;;;;4.18;1.95;;;11.30;99.90;;;;;;5046729;28;20024;-81
2022/10/31 01:38:51;;;;;;;2.75;1.38;;;11.30;99.90;;;;;;5045840;28;20028;-79
2022/10/31 01:41:23;;;;;;;3.28;1.75;;;11.40;99.90;;;;;;5046348;28;20052;-79
2022/10/31 01:43:56;;;;;;;3.10;1.65;;;11.30;99.90;;;;;;5058281;28;20033;-79
2022/10/31 01:46:30;;;;;;;3.78;1.40;;;11.20;99.90;;;;;;5029959;28;20111;-78
2022/10/31 01:48:58;;;;;;;3.47;1.50;;;11.20;99.90;;;;;;5044725;28;20091;-82
2022/10/31 01:51:31;;;;;;;3.65;1.67;;;11.20;99.90;;;;;;5044901;28;20078;-78
2022/10/31 01:54:01;;;;;;;3.35;1.50;;;11.20;99.90;;;;;;5045177;28;20029;-80
2022/10/31 01:56:27;;;;;;;3.65;1.90;;;11.20;99.90;;;;;;5046276;28;20064;-80
2022/10/31 01:58:56;;;;;;;4.28;1.50;;;11.20;99.90;;;;;;5046199;28;20116;-80
2022/10/31 02:01:21;;;;;;;2.95;1.65;;;11.40;99.90;;;;;;5042733;28;20025;-78
2022/10/31 02:03:48;;;;;;;2.95;1.63;;;11.30;99.90;;;;;;5048249;28;20029;-75
2022/10/31 02:06:45;;;;;;;3.08;1.17;;;11.30;99.90;;;;;;5042175;28;20116;-81
2022/10/31 02:09:13;;;;;;;3.72;1.35;;;11.50;99.90;;;;;;5028803;28;20029;-80
2022/10/31 02:11:40;;;;;;;3.92;1.77;;;11.20;99.90;;;;;;5047959;28;20025;-79
2022/10/31 02:14:05;;;;;;;4.82;2.08;;;11.20;99.90;;;;;;5042841;28;20109;-76
2022/10/31 02:16:31;;;;;;;3.20;1.65;;;11.30;99.90;;;;;;5041974;28;20469;-80
2022/10/31 02:18:57;;;;;;;2.97;1.35;;;11.30;99.90;;;;;;5043845;28;20398;-79
2022/10/31 02:21:50;;;;;;;2.80;1.73;;;11.40;99.90;;;;;;5043130;28;20017;-77
2022/10/31 02:24:39;;;;;;;2.28;1.38;;;11.30;99.90;;;;;;5059236;28;20029;-79
2022/10/31 02:27:28;;;;;;;2.67;1.27;;;11.40;99.90;;;;;;5040381;28;20500;-81
2022/10/31 02:30:06;;;;;;;2.47;1.27;;;11.40;99.90;;;;;;5059028;28;20064;-79
2022/10/31 02:33:02;;;;;;;2.92;1.42;;;11.20;99.90;;;;;;5043507;28;20025;-75
2022/10/31 02:35:36;;;;;;;2.97;1.10;;;11.30;99.90;;;;;;5044151;28;20025;-78
2022/10/31 02:38:41;;;;;;;3.38;1.42;;;11.20;99.90;;;;;;5045394;28;20025;-77
2022/10/31 02:41:19;;;;;;;3.45;1.73;;;11.30;99.90;;;;;;5021395;28;20049;-78
2022/10/31 02:44:05;;;;;;;3.03;1.25;;;11.20;99.90;;;;;;5046049;28;20042;-81
2022/10/31 02:46:37;;;;;;;;;;;11.20;99.90;;;;;;5047824;28;20040;-80
2022/10/31 02:49:17;;;;;;;3.00;1.50;;;11.20;99.90;;;;;;5046761;28;19908;-81
2022/10/31 02:51:44;;;;;;;3.38;1.52;;;11.20;99.90;;;;;;5041353;28;20032;-79
2022/10/31 02:54:22;;;;;;;2.80;1.05;;;11.20;99.90;;;;;;5042287;28;20026;-76
2022/10/31 02:56:59;;;;;;;3.38;1.90;;;11.20;99.90;;;;;;5046595;28;20068;-78
2022/10/31 02:59:26;;;;;;;3.30;1.77;;;11.10;99.90;;;;;;5047931;28;20402;-82
2022/10/31 03:02:22;;;;;;;4.13;1.75;;;11.20;99.90;;;;;;5046711;28;20499;-80
2022/10/31 03:05:31;;;;;;;3.08;1.40;;;11.20;99.90;;;;;;5047392;28;20032;-78
2022/10/31 03:08:23;;;;;;;3.10;1.63;;;11.20;99.90;;;;;;5046044;28;20025;-80
2022/10/31 03:10:58;;;;;;;4.15;1.70;;;11.00;99.90;;;;;;5038478;28;20029;-78
2022/10/31 03:13:33;;;;;;;4.25;2.10;;;11.00;99.90;;;;;;5045952;28;20023;-81
2022/10/31 03:16:44;;;;;;;3.60;1.75;;;11.00;99.90;;;;;;5043039;28;20026;-81
2022/10/31 03:19:41;;;;;;;3.50;1.58;;;10.90;99.90;;;;;;5045119;28;20044;-77
2022/10/31 03:22:32;;;;;;;4.18;1.85;;;10.70;99.90;;;;;;5045873;28;20083;-80
2022/10/31 03:25:01;;;;;;;3.58;1.52;;;10.70;99.90;;;;;;5042536;28;20102;-80
2022/10/31 03:27:32;;;;;;;4.70;2.53;;;10.70;99.90;;;;;;5040525;28;20029;-79
2022/10/31 03:30:02;;;;;;;4.75;2.47;;;10.80;99.90;;;;;;5040281;28;20025;-77
2022/10/31 03:32:46;;;;;;;4.93;2.50;;;10.80;99.90;;;;;;5042365;28;20498;-76
2022/10/31 03:35:15;;;;;;;5.00;2.25;;;10.90;99.90;;;;;;5039894;28;20029;-76
2022/10/31 03:37:42;;;;;;;5.72;2.35;;;10.70;99.90;;;;;;5045744;28;20398;-80
2022/10/31 03:40:13;;;;;;;4.72;2.88;;;10.70;99.90;;;;;;5041460;28;20127;-77
2022/10/31 03:42:44;;;;;;;4.88;2.85;;;10.60;99.90;;;;;;5044688;28;20519;-76
2022/10/31 03:45:14;;;;;;;;;;;10.60;99.90;;;;;;5040168;28;20195;-78
2022/10/31 03:47:43;;;;;;;3.50;2.53;;;10.60;99.90;;;;;;5039939;28;19908;-77
2022/10/31 03:50:11;;;;;;;4.45;2.80;;;10.50;99.90;;;;;;5029052;28;20431;-77
2022/10/31 03:53:22;;;;;;;5.45;3.08;;;10.50;99.90;;;;;;5042599;28;20490;-78
2022/10/31 03:56:00;;;;;;;4.45;2.40;;;10.40;99.90;;;;;;5029600;28;20387;-80
2022/10/31 03:58:37;;;;;;;5.82;2.75;;;10.40;99.90;;;;;;5037942;28;20025;-79
2022/10/31 04:01:08;;;;;;;5.00;3.00;;;10.50;99.90;;;;;;5041359;28;20116;-79
2022/10/31 04:03:37;;;;;;;4.65;2.40;;;10.50;99.90;;;;;;5041182;28;20027;-76
2022/10/31 04:06:09;;;;;;;3.90;2.60;;;10.40;99.90;;;;;;5038901;28;20512;-80
2022/10/31 04:08:49;;;;;;;4.40;2.78;;;10.40;99.90;;;;;;5045628;28;20287;-78
2022/10/31 04:11:21;;;;;;;5.30;3.20;;;10.30;99.90;;;;;;5038903;28;20025;-81
2022/10/31 04:13:58;;;;;;;4.15;2.45;;;10.30;99.90;;;;;;5046037;28;20504;-79
2022/10/31 04:16:26;;;;;;;5.32;3.28;;;10.30;99.90;;;;;;5045381;28;20102;-80
2022/10/31 04:18:52;;;;;;;4.88;2.65;;;10.30;99.90;;;;;;5044221;28;20045;-77
2022/10/31 04:21:18;;;;;;;4.53;2.80;;;10.20;99.90;;;;;;5041357;28;20025;-80
2022/10/31 04:23:44;;;;;;;5.15;3.33;;;10.20;99.90;;;;;;5056809;28;20721;-80
2022/10/31 04:26:17;;;;;;;4.68;3.28;;;10.10;99.90;;;;;;5035826;28;20138;-79
2022/10/31 04:28:43;;;;;;;4.75;3.80;;;10.00;99.90;;;;;;5027675;28;20029;-78
2022/10/31 04:31:11;;;;;;;5.85;3.33;;;10.10;99.90;;;;;;5049395;28;20033;-76
2022/10/31 04:33:38;;;;;;;4.18;2.55;;;10.00;99.90;;;;;;5043089;28;20060;-76
2022/10/31 04:36:06;;;;;;;5.25;3.17;;;10.00;99.90;;;;;;5056273;28;20048;-79
2022/10/31 04:38:32;;;;;;;5.85;3.20;;;10.00;99.90;;;;;;5029074;28;20547;-80
2022/10/31 04:40:59;;;;;;;7.20;3.67;;;10.10;99.90;;;;;;5029562;28;20033;-77
2022/10/31 04:44:03;;;;;;;3.90;3.00;;;10.10;99.90;;;;;;5031605;28;20032;-78
2022/10/31 04:46:29;;;;;;;6.90;3.20;;;10.00;99.90;;;;;;5042782;28;20327;-80
2022/10/31 04:48:57;;;;;;;6.10;4.10;;;10.10;99.90;;;;;;5038308;28;20082;-78
2022/10/31 04:51:23;;;;;;;6.55;3.78;;;10.10;99.90;;;;;;5028565;28;20025;-80
2022/10/31 04:53:50;;;;;;;5.05;3.90;;;10.10;99.90;;;;;;5043954;28;20033;-79
2022/10/31 04:56:34;;;;;;;5.75;3.95;;;10.10;99.90;;;;;;5055274;28;20095;-82
2022/10/31 04:59:05;;;;;;;6.75;4.25;;;10.00;99.90;;;;;;5045775;28;20040;-79
2022/10/31 05:01:43;;;;;;;5.55;4.30;;;10.20;99.90;;;;;;5043990;28;20067;-82
2022/10/31 05:04:09;;;;;;;5.93;4.20;;;10.20;99.90;;;;;;5045844;28;20071;-77
2022/10/31 05:06:35;;;;;;;6.30;4.07;;;10.00;99.90;;;;;;5033074;28;20025;-80
2022/10/31 05:09:01;;;;;;;5.57;3.63;;;9.80;99.90;;;;;;5047525;28;21392;-78
2022/10/31 05:11:27;;;;;;;6.95;4.43;;;9.90;99.90;;;;;;5042127;28;20036;-80
2022/10/31 05:13:57;;;;;;;5.80;3.72;;;10.00;99.90;;;;;;5043170;28;20400;-77
2022/10/31 05:16:43;;;;;;;6.32;4.20;;;9.90;99.90;;;;;;5056197;28;20477;-81
2022/10/31 05:19:27;;;;;;;4.97;4.00;;;9.70;99.90;;;;;;5045941;28;20102;-79
2022/10/31 05:22:02;;;;;;;6.15;3.65;;;9.90;99.90;;;;;;5049941;28;20029;-77
2022/10/31 05:24:28;;;;;;;6.28;4.10;;;10.00;99.90;;;;;;5047897;28;20044;-78
2022/10/31 05:26:54;;;;;;;5.85;3.60;;;9.90;99.90;;;;;;5032558;28;20021;-77
2022/10/31 05:29:20;;;;;;;8.02;4.95;;;9.90;99.90;;;;;;5047337;28;20029;-77
2022/10/31 05:31:45;;;;;;;7.38;3.97;;;9.80;99.90;;;;;;5044488;28;20075;-82
2022/10/31 05:34:31;;;;;;;5.88;4.07;;;9.80;99.90;;;;;;5047427;28;20063;-78
2022/10/31 05:37:26;;;;;;;6.53;4.50;;;9.80;99.90;;;;;;5037654;28;20078;-77
2022/10/31 05:39:51;;;;;;;7.82;5.00;;;9.80;99.90;;;;;;5032665;28;20045;-81
2022/10/31 05:42:17;;;;;;;5.93;3.92;;;9.80;99.90;;;;;;5049003;28;20444;-77
2022/10/31 05:44:43;;;;;;;6.50;3.97;;;9.70;99.90;;;;;;5048883;28;20115;-77
2022/10/31 05:47:17;;;;;;;7.35;4.57;;;9.60;99.90;;;;;;5046224;28;20474;-78
2022/10/31 05:49:54;;;;;;;5.45;4.32;;;9.50;99.90;;;;;;5047213;28;20037;-81
2022/10/31 05:52:38;;;;;;;7.45;5.07;;;9.50;99.90;;;;;;5045571;28;20118;-79
2022/10/31 05:55:14;;;;;;;7.18;4.45;;;9.50;99.90;;;;;;5042897;28;20024;-81
2022/10/31 05:57:53;;;;;;;7.28;4.43;;;9.40;99.90;;;;;;5046887;28;20040;-76
2022/10/31 06:00:20;;;;;;;5.65;4.15;;;9.40;99.90;;;;;;5025713;28;20037;-79
2022/10/31 06:02:49;;;;;;;6.65;4.43;;;9.40;99.90;;;;;;5045979;28;20056;-78
2022/10/31 06:05:14;;;;;;;6.50;4.72;;;9.40;99.90;;;;;;5045497;28;20041;-77
2022/10/31 06:07:42;;;;;;;6.32;4.93;;;9.30;99.90;;;;;;5029373;28;20040;-80
2022/10/31 06:10:09;;;;;;;5.53;3.95;;;9.30;99.90;;;;;;5045366;28;20460;-77
2022/10/31 06:12:40;;;;;;;6.75;5.13;;;9.30;99.90;;;;;;5039796;28;20029;-78
2022/10/31 06:15:19;;;;;;;5.25;4.00;;;9.30;99.90;;;;;;5044030;28;20028;-79
2022/10/31 06:17:46;;;;;;;7.15;4.72;;;9.20;99.90;;;;;;5046907;28;20021;-76
2022/10/31 06:20:23;;;;;;;5.90;4.38;;;9.10;99.90;;;;;;5043225;28;20464;-79
2022/10/31 06:22:57;;;;;;;6.68;4.50;;;9.10;99.90;;;;;;5058147;28;20021;-82
2022/10/31 06:25:23;;;;;;;8.40;5.05;;;9.10;99.90;;;;;;5037618;28;20032;-83
2022/10/31 06:27:49;;;;;;;6.65;4.68;;;9.20;99.90;;;;;;5042899;28;20036;-81
2022/10/31 06:30:15;;;;;;;6.78;4.78;;;9.20;99.90;;;;;;5047285;28;20025;-76
2022/10/31 06:32:42;;;;;;;6.25;3.85;;;9.10;99.90;;;;;;5047327;28;20030;-82
2022/10/31 06:35:09;;;;;;;5.90;4.72;;;9.10;99.90;;;;;;5045927;28;20051;-77
2022/10/31 06:37:36;;;;;;;6.88;4.15;;;9.00;99.90;;;;;;5047011;28;20067;-82
2022/10/31 06:40:13;;;;;;;7.75;4.47;;;9.10;99.90;;;;;;5042456;28;20473;-78
2022/10/31 06:43:00;;;;;;;6.55;4.03;;;9.10;99.90;;;;;;5043214;28;20075;-79
2022/10/31 06:45:27;;;;;;;5.70;4.03;;;9.10;99.90;;;;;;5036516;28;20032;-78
2022/10/31 06:48:12;;;;;;;7.97;4.40;;;9.20;99.90;;;;;;5042433;28;20051;-76
2022/10/31 06:50:45;;;;;;;5.13;3.65;;;9.10;99.90;;;;;;5042725;28;20117;-82
2022/10/31 06:53:14;;;;;;;6.18;4.47;;;9.10;99.90;;;;;;5046934;28;20027;-76
2022/10/31 06:55:40;;;;;;;6.88;4.45;;;9.20;99.90;;;;;;5044208;28;20055;-82
2022/10/31 06:58:09;;;;;;;5.13;3.88;;;9.20;99.90;;;;;;5038500;28;20573;-82
2022/10/31 07:00:34;;;;;;;5.63;3.85;;;9.20;99.90;;;;;;5038670;28;20040;-82
2022/10/31 07:03:07;;;;;;;7.57;4.05;;;9.20;99.90;;;;;;5041692;28;20086;-80
2022/10/31 07:05:33;;;;;;;6.15;4.28;;;9.10;99.90;;;;;;5042965;28;20120;-81
2022/10/31 07:08:02;;;;;;;5.57;3.97;;;9.10;99.90;;;;;;5044495;28;20402;-81
2022/10/31 07:10:30;;;;;;;6.35;4.05;;;9.20;99.90;;;;;;5034743;28;20551;-79
2022/10/31 07:13:02;;;;;;;5.80;3.92;;;9.30;99.90;;;;;;5041409;28;20021;-80
2022/10/31 07:15:34;;;;;;;5.53;3.97;;;9.30;99.90;;;;;;5057822;28;20029;-82
2022/10/31 07:18:03;;;;;;;;;;;9.30;99.90;;;;;;5039742;28;20025;-79
2022/10/31 07:20:30;;;;;;;6.47;3.63;;;9.40;99.90;;;;;;5041935;28;19920;-79
2022/10/31 07:22:56;;;;;;;4.60;3.05;;;9.40;99.90;;;;;;5039924;28;20052;-78
2022/10/31 07:25:23;;;;;;;4.88;2.92;;;9.40;99.90;;;;;;5041695;28;20212;-79
2022/10/31 07:28:08;;;;;;;5.35;3.22;;;9.50;99.90;;;;;;5035084;28;20028;-84
2022/10/31 07:30:34;;;;;;;5.40;3.28;;;9.60;99.90;;;;;;5058579;28;20377;-80
2022/10/31 07:33:00;;;;;;;5.97;3.22;;;9.60;99.90;;;;;;5042806;28;20029;-80
2022/10/31 07:35:45;;;;;;;4.82;3.03;;;9.60;99.90;;;;;;5039725;28;20033;-82
2022/10/31 07:38:14;;;;;;;8.90;3.58;;;9.70;99.90;;;;;;5039291;28;20029;-79
2022/10/31 07:40:42;;;;;;;5.75;3.45;;;9.80;99.90;;;;;;5042535;28;20029;-82
2022/10/31 07:43:09;;;;;;;4.97;3.00;;;10.00;99.90;;;;;;5042569;28;20035;-78
2022/10/31 07:45:56;;;;;;;4.80;3.20;;;10.00;99.90;;;;;;5041795;28;20489;-78
2022/10/31 07:48:39;;;;;;;4.15;3.15;;;10.20;99.90;;;;;;5042428;28;20112;-77
2022/10/31 07:51:29;;;;;;;5.90;3.10;;;10.30;99.90;;;;;;5040498;28;20520;-77
2022/10/31 07:54:03;;;;;;;3.95;2.75;;;10.40;99.90;;;;;;5039997;28;20563;-82
2022/10/31 07:56:31;;;;;;;6.22;3.22;;;10.50;99.90;;;;;;5031208;28;20080;-77
2022/10/31 07:58:56;;;;;;;4.10;3.05;;;10.60;99.90;;;;;;5040750;28;20056;-78
2022/10/31 08:01:22;;;;;;;5.65;3.80;;;10.90;99.90;;;;;;5041877;28;20047;-83
2022/10/31 08:04:07;;;;;;;5.80;3.90;;;11.00;99.90;;;;;;5058234;28;20083;-80
2022/10/31 08:07:02;;;;;;;7.25;3.75;;;11.00;99.90;;;;;;5000393;28;20104;-78
2022/10/31 08:09:33;;;;;;;7.72;3.70;;;11.00;99.90;;;;;;5000024;28;20143;-80
2022/10/31 08:12:03;;;;;;;6.15;3.38;;;11.20;99.90;;;;;;4999949;28;20045;-83
2022/10/31 08:14:30;;;;;;;5.65;3.90;;;11.20;99.90;;;;;;4983655;28;20112;-78
2022/10/31 08:16:56;;;;;;;6.47;4.28;;;11.30;99.90;;;;;;5000381;28;20040;-78
2022/10/31 08:19:24;;;;;;;6.30;4.53;;;11.30;99.90;;;;;;4999427;28;20042;-84
2022/10/31 08:21:51;;;;;;;7.45;4.20;;;11.40;99.90;;;;;;4984059;28;20041;-78
2022/10/31 08:24:17;;;;;;;7.53;4.18;;;11.50;99.90;;;;;;4999560;28;20033;-77
2022/10/31 08:26:43;;;;;;;7.00;4.65;;;11.60;99.90;;;;;;4998402;28;20029;-77
2022/10/31 08:29:10;;;;;;;6.82;4.25;;;11.70;99.90;;;;;;4983752;28;20049;-78
2022/10/31 08:31:37;;;;;;;6.07;4.03;;;11.90;99.90;;;;;;4983554;28;20038;-77
2022/10/31 08:34:21;;;;;;;6.35;4.63;;;12.10;99.90;;;;;;4997889;28;20612;-77
2022/10/31 08:37:05;;;;;;;7.25;4.65;;;12.30;99.90;;;;;;5004360;28;20044;-77
2022/10/31 08:39:46;;;;;;;8.43;5.00;;;12.50;99.90;;;;;;4990063;28;20080;-80
2022/10/31 08:42:12;;;;;;;6.68;4.45;;;12.50;99.90;;;;;;5003325;28;20116;-78
2022/10/31 08:44:38;;;;;;;6.85;4.90;;;12.60;99.90;;;;;;5043674;28;20123;-77
2022/10/31 08:47:04;;;;;;;7.72;4.78;;;12.70;99.90;;;;;;5042553;28;20045;-78
2022/10/31 08:49:32;;;;;;;6.40;4.15;;;12.80;99.90;;;;;;5039716;28;20029;-78
2022/10/31 08:51:58;;;;;;;8.38;4.90;;;12.80;99.90;;;;;;5044072;28;20068;-77
2022/10/31 08:54:28;;;;;;;9.88;5.60;;;12.90;99.90;;;;;;5044452;28;20090;-81
2022/10/31 08:56:55;;;;;;;8.45;5.28;;;13.00;99.90;;;;;;5046300;28;20040;-83
2022/10/31 08:59:32;;;;;;;8.32;5.72;;;13.00;99.90;;;;;;5034517;28;20041;-78
2022/10/31 09:02:18;;;;;;;9.43;5.13;;;13.20;99.90;;;;;;5043214;28;20497;-82
2022/10/31 09:04:43;;;;;;;10.27;6.07;;;13.40;99.90;;;;;;5028940;28;20086;-78
2022/10/31 09:07:09;;;;;;;10.68;6.43;;;13.50;99.90;;;;;;5032265;28;20378;-78
2022/10/31 09:09:36;;;;;;;8.85;5.63;;;13.60;99.90;;;;;;5045657;28;20119;-81
2022/10/31 09:12:01;;;;;;;11.23;5.93;;;13.80;99.90;;;;;;5045437;28;20108;-83
2022/10/31 09:15:06;;;;;;;9.00;5.85;;;14.00;99.90;;;;;;5042311;28;20453;-78
2022/10/31 09:17:46;;;;;;;9.55;5.40;;;14.30;99.90;;;;;;5024777;28;20017;-81
2022/10/31 09:20:42;;;;;;;10.00;6.63;;;14.40;99.90;;;;;;5034930;28;20044;-84
2022/10/31 09:23:14;;;;;;;11.73;6.75;;;14.40;99.90;;;;;;5027647;28;20067;-77
2022/10/31 09:25:41;;;;;;;12.13;6.95;;;14.40;99.90;;;;;;5024449;28;20053;-78
2022/10/31 09:28:33;;;;;;;11.80;7.47;;;14.50;99.90;;;;;;5041985;28;20497;-77
2022/10/31 09:31:08;;;;;;;13.20;7.85;;;14.40;99.90;;;;;;5027880;28;20469;-76
2022/10/31 09:33:54;;;;;;;13.85;9.02;;;14.60;99.90;;;;;;5025161;28;20044;-79
2022/10/31 09:36:35;;;;;;;11.60;7.38;;;14.90;99.90;;;;;;5044078;28;20044;-79
2022/10/31 09:39:02;;;;;;;13.40;7.85;;;14.90;99.90;;;;;;5027703;28;20062;-78
2022/10/31 09:41:38;;;;;;;13.77;8.93;;;14.80;99.90;;;;;;5022640;28;20032;-81
2022/10/31 09:44:34;;;;;;;14.57;7.63;;;14.80;99.90;;;;;;5022729;28;20067;-76
2022/10/31 09:47:12;;;;;;;13.82;8.75;;;14.90;99.90;;;;;;5026935;28;20504;-78
2022/10/31 09:50:11;;;;;;;12.35;8.00;;;14.80;99.90;;;;;;5043006;28;20029;-76
2022/10/31 09:52:42;;;;;;;13.93;8.93;;;14.80;99.90;;;;;;5028168;28;20021;-80
2022/10/31 09:55:16;;;;;;;13.70;7.75;;;14.70;99.90;;;;;;5043445;28;20409;-79
2022/10/31 09:57:43;;;;;;;12.48;7.95;;;14.80;99.90;;;;;;5042196;28;20047;-76
2022/10/31 10:00:18;;;;;;;10.85;7.07;;;14.80;99.90;;;;;;5042175;28;20389;-76
2022/10/31 10:03:05;;;;;;;11.00;6.93;;;14.80;99.90;;;;;;5042751;28;20028;-79
2022/10/31 10:05:38;;;;;;;9.15;6.20;;;14.90;99.90;;;;;;5026030;28;20041;-80
2022/10/31 10:08:14;;;;;;;9.60;6.82;;;14.80;99.90;;;;;;5027998;28;20107;-80
2022/10/31 10:11:10;;;;;;;11.93;6.43;;;14.80;99.90;;;;;;5044918;28;20412;-77
2022/10/31 10:13:56;;;;;;;12.50;6.50;;;15.00;99.90;;;;;;5019703;28;20550;-78
2022/10/31 10:16:43;;;;;;;6.60;5.05;;;15.30;99.90;;;;;;5027253;28;20037;-75
2022/10/31 10:19:30;;;;;;;11.35;5.78;;;15.50;99.90;;;;;;5030604;28;20056;-78
2022/10/31 10:22:12;;;;;;;8.57;5.35;;;15.70;99.90;;;;;;5042163;28;20269;-78
2022/10/31 10:25:02;;;;;;;9.30;5.63;;;15.70;99.90;;;;;;5043948;28;20664;-75
2022/10/31 10:27:46;;;;;;;;;;;15.60;99.90;;;;;;5041670;28;20961;-75
2022/10/31 10:30:27;;;;;;;7.85;4.72;;;15.60;99.90;;;;;;5020645;28;19916;-75
2022/10/31 10:32:59;;;;;;;7.60;4.75;;;15.70;99.90;;;;;;5043051;28;20037;-80
2022/10/31 10:35:39;;;;;;;9.82;6.13;;;15.60;99.90;;;;;;5019054;28;20111;-79
2022/10/31 10:38:13;;;;;;;;;;;15.70;99.90;;;;;;5040768;28;20528;-78
2022/10/31 10:40:39;;;;;;;9.43;5.65;;;15.60;99.90;;;;;;5041358;28;19998;-76
2022/10/31 10:43:20;;;;;;;10.82;5.70;;;15.70;99.90;;;;;;5040599;28;20045;-75
2022/10/31 10:49:26;;;;;;;8.98;5.18;;;15.80;99.90;;;;;;5044806;28;20065;-79
2022/10/31 10:52:07;;;;;;;9.18;5.10;;;15.90;99.90;;;;;;5042127;28;20636;-79
2022/10/31 10:55:04;;;;;;;9.25;5.05;;;15.90;99.90;;;;;;5041443;28;20219;-78
2022/10/31 10:57:35;;;;;;;9.73;5.88;;;15.90;99.90;;;;;;5021135;28;20032;-76
2022/10/31 11:00:21;;;;;;;10.18;6.50;;;16.00;99.90;;;;;;5038959;28;20084;-77
2022/10/31 11:02:47;;;;;;;12.48;6.80;;;16.00;99.90;;;;;;5026113;28;20044;-75
2022/10/31 11:05:42;;;;;;;11.45;7.15;;;16.00;99.90;;;;;;5044265;28;20029;-80
2022/10/31 11:08:08;;;;;;;12.55;6.72;;;16.30;99.90;;;;;;5013642;28;20116;-75
2022/10/31 11:10:34;;;;;;;10.48;6.28;;;16.50;99.90;;;;;;5041513;28;20098;-79
2022/10/31 11:13:06;;;;;;;10.55;5.95;;;16.80;99.90;;;;;;5040741;28;20029;-75
2022/10/31 11:15:59;;;;;;;14.77;7.90;;;16.80;99.90;;;;;;5020898;28;20032;-79
2022/10/31 11:18:30;;;;;;;11.70;6.47;;;16.80;99.90;;;;;;5039304;28;20155;-78
2022/10/31 11:20:59;;;;;;;12.43;8.05;;;16.90;99.90;;;;;;5042630;28;20537;-78
2022/10/31 11:23:27;;;;;;;12.63;7.05;;;16.90;99.90;;;;;;5025097;28;20221;-80
2022/10/31 11:25:59;;;;;;;13.30;7.95;;;16.80;99.90;;;;;;5043815;28;20041;-80
2022/10/31 11:28:32;;;;;;;13.07;7.35;;;16.80;99.90;;;;;;5040349;28;20025;-79
2022/10/31 11:30:59;;;;;;;12.38;7.15;;;16.90;99.90;;;;;;5023464;28;20096;-77
2022/10/31 11:33:30;;;;;;;10.30;6.38;;;16.80;99.90;;;;;;5038944;28;20064;-75
2022/10/31 11:35:57;;;;;;;12.75;7.30;;;16.70;99.90;;;;;;5041617;28;20029;-77
2022/10/31 11:38:29;;;;;;;10.68;6.93;;;16.80;99.90;;;;;;5041255;28;20491;-78
2022/10/31 11:40:59;;;;;;;11.82;6.60;;;16.70;99.90;;;;;;5043456;28;20136;-79
2022/10/31 11:43:26;;;;;;;11.60;6.93;;;16.80;99.90;;;;;;5024799;28;22390;-76
2022/10/31 11:45:52;;;;;;;12.77;6.80;;;17.00;99.90;;;;;;5041392;28;20029;-78
2022/10/31 11:48:23;;;;;;;9.68;5.72;;;17.10;99.90;;;;;;5039322;28;20025;-76
2022/10/31 11:50:56;;;;;;;10.77;7.13;;;17.10;99.90;;;;;;5019834;28;20041;-77
2022/10/31 11:53:32;;;;;;;11.80;7.07;;;17.10;99.90;;;;;;5039803;28;20041;-75
2022/10/31 11:56:14;;;;;;;15.65;7.93;;;17.10;99.90;;;;;;5024076;28;20033;-76
2022/10/31 11:58:41;;;;;;;12.38;7.30;;;17.20;99.90;;;;;;5042923;28;20468;-82
2022/10/31 12:01:28;;;;;;;8.80;5.82;;;17.20;99.90;;;;;;5042767;28;20071;-76
2022/10/31 12:04:12;;;;;;;10.15;6.80;;;17.30;99.90;;;;;;5040242;28;20029;-78
2022/10/31 12:06:43;;;;;;;12.95;7.70;;;17.30;99.90;;;;;;5040875;28;20430;-78
2022/10/31 12:09:20;;;;;;;13.15;7.57;;;17.30;99.90;;;;;;5039606;28;20028;-81
2022/10/31 12:11:52;;;;;;;13.00;8.55;;;17.30;99.90;;;;;;5019970;28;20032;-76
2022/10/31 12:14:47;;;;;;;16.10;7.82;;;17.30;99.90;;;;;;5022253;28;20044;-76
2022/10/31 12:17:26;;;;;;;12.32;7.43;;;17.20;99.90;;;;;;5041099;28;20056;-80
2022/10/31 12:20:29;;;;;;;12.68;7.82;;;17.20;99.90;;;;;;5016382;28;20049;-79
2022/10/31 12:23:36;;;;;;;16.73;9.48;;;17.20;99.90;;;;;;5024798;28;20136;-77
2022/10/31 12:26:25;;;;;;;13.20;7.90;;;17.20;99.90;;;;;;5038782;28;20068;-76
2022/10/31 12:29:13;;;;;;;16.13;9.60;;;17.20;99.90;;;;;;5039958;28;20037;-76
2022/10/31 12:32:04;;;;;;;15.93;8.63;;;17.20;99.90;;;;;;5024541;28;20459;-75
2022/10/31 12:35:00;;;;;;;15.05;8.18;;;17.30;99.90;;;;;;5040847;28;20037;-76
2022/10/31 12:37:50;;;;;;;13.55;7.95;;;17.30;99.90;;;;;;5043247;28;20087;-76
2022/10/31 12:40:34;;;;;;;13.43;7.93;;;17.40;99.90;;;;;;5023652;28;20037;-77
2022/10/31 12:43:31;;;;;;;13.73;7.20;;;17.50;99.90;;;;;;5039618;28;20025;-75
2022/10/31 12:45:59;;;;;;;14.40;8.77;;;17.50;99.90;;;;;;5040045;28;20029;-80
2022/10/31 12:48:52;;;;;;;14.23;8.48;;;17.50;99.90;;;;;;5039984;28;20025;-75
2022/10/31 12:51:48;;;;;;;14.90;8.27;;;17.60;99.90;;;;;;5039790;28;20033;-80
2022/10/31 12:54:29;;;;;;;15.77;8.90;;;17.50;99.90;;;;;;5042504;28;20043;-78
2022/10/31 12:57:07;;;;;;;14.02;8.10;;;17.50;99.90;;;;;;5042165;28;20021;-75
2022/10/31 12:59:37;;;;;;;15.23;7.95;;;17.60;99.90;;;;;;5039924;28;20041;-80
2022/10/31 13:02:34;;;;;;;17.60;9.93;;;17.60;99.90;;;;;;5040097;28;20486;-78
2022/10/31 13:05:12;;;;;;;15.25;8.63;;;17.50;99.90;;;;;;5041100;28;20397;-75
2022/10/31 13:07:54;;;;;;;16.25;9.75;;;17.50;99.90;;;;;;5039000;28;20021;-79
2022/10/31 13:10:46;;;;;;;15.57;9.10;;;17.50;99.90;;;;;;5040732;28;20052;-76
2022/10/31 13:13:34;;;;;;;15.55;9.50;;;17.50;99.90;;;;;;5035944;28;20041;-76
2022/10/31 13:16:05;;;;;;;16.73;9.48;;;17.40;99.90;;;;;;5041483;28;20539;-76
2022/10/31 13:18:54;;;;;;;12.68;7.63;;;17.50;99.90;;;;;;5040347;28;20072;-76
2022/10/31 13:21:42;;;;;;;14.75;8.48;;;17.50;99.90;;;;;;5037804;28;20043;-79
2022/10/31 13:24:18;;;;;;;13.38;8.27;;;17.50;99.90;;;;;;4995079;28;20103;-75
2022/10/31 13:26:56;;;;;;;18.38;10.93;;;17.50;99.90;;;;;;5043202;28;20030;-75
2022/10/31 13:29:41;;;;;;;14.57;8.85;;;17.50;99.90;;;;;;5044287;28;20037;-78